sensor_id;sensor_type;location;lat;lon;timestamp;P1;durP1;ratioP1;P2;durP2;ratioP2
66585;SDS011;53444;45.822;16.092;2023-07-29T00:01:11;3.33;;;2.10;;
66585;SDS011;53444;45.822;16.092;2023-07-29T00:03:38;6.80;;;2.53;;
66585;SDS011;53444;45.822;16.092;2023-07-29T00:06:04;5.40;;;2.05;;
66585;SDS011;53444;45.822;16.092;2023-07-29T00:08:32;5.25;;;2.30;;
66585;SDS011;53444;45.822;16.092;2023-07-29T00:10:59;4.75;;;2.28;;
66585;SDS011;53444;45.822;16.092;2023-07-29T00:13:24;6.10;;;2.43;;
66585;SDS011;53444;45.822;16.092;2023-07-29T00:15:53;3.50;;;2.13;;
66585;SDS011;53444;45.822;16.092;2023-07-29T00:18:19;6.20;;;2.67;;
66585;SDS011;53444;45.822;16.092;2023-07-29T00:20:46;5.03;;;2.58;;
66585;SDS011;53444;45.822;16.092;2023-07-29T00:23:13;5.10;;;2.50;;
66585;SDS011;53444;45.822;16.092;2023-07-29T00:25:41;6.18;;;2.70;;
66585;SDS011;53444;45.822;16.092;2023-07-29T00:28:07;3.97;;;2.40;;
66585;SDS011;53444;45.822;16.092;2023-07-29T00:30:34;6.00;;;2.17;;
66585;SDS011;53444;45.822;16.092;2023-07-29T00:33:00;4.07;;;2.65;;
66585;SDS011;53444;45.822;16.092;2023-07-29T00:35:27;5.80;;;2.67;;
66585;SDS011;53444;45.822;16.092;2023-07-29T00:37:53;4.95;;;2.30;;
66585;SDS011;53444;45.822;16.092;2023-07-29T00:40:21;4.82;;;2.85;;
66585;SDS011;53444;45.822;16.092;2023-07-29T00:42:49;5.95;;;2.60;;
66585;SDS011;53444;45.822;16.092;2023-07-29T00:45:16;4.15;;;2.40;;
66585;SDS011;53444;45.822;16.092;2023-07-29T00:47:43;5.23;;;2.60;;
66585;SDS011;53444;45.822;16.092;2023-07-29T00:50:10;7.28;;;2.72;;
66585;SDS011;53444;45.822;16.092;2023-07-29T00:52:38;3.97;;;2.85;;
66585;SDS011;53444;45.822;16.092;2023-07-29T00:55:05;5.47;;;2.70;;
66585;SDS011;53444;45.822;16.092;2023-07-29T00:57:33;4.65;;;2.47;;
66585;SDS011;53444;45.822;16.092;2023-07-29T01:00:03;2.83;;;2.20;;
66585;SDS011;53444;45.822;16.092;2023-07-29T01:02:30;5.03;;;2.60;;
66585;SDS011;53444;45.822;16.092;2023-07-29T01:04:58;4.85;;;3.00;;
66585;SDS011;53444;45.822;16.092;2023-07-29T01:07:27;3.53;;;2.15;;
66585;SDS011;53444;45.822;16.092;2023-07-29T01:10:00;4.63;;;2.40;;
66585;SDS011;53444;45.822;16.092;2023-07-29T01:12:33;3.67;;;2.40;;
66585;SDS011;53444;45.822;16.092;2023-07-29T01:15:11;3.45;;;2.35;;
66585;SDS011;53444;45.822;16.092;2023-07-29T01:17:42;4.63;;;2.28;;
66585;SDS011;53444;45.822;16.092;2023-07-29T01:20:14;4.28;;;2.28;;
66585;SDS011;53444;45.822;16.092;2023-07-29T01:22:42;3.65;;;2.38;;
66585;SDS011;53444;45.822;16.092;2023-07-29T01:25:10;3.60;;;2.23;;
66585;SDS011;53444;45.822;16.092;2023-07-29T01:27:37;4.07;;;2.10;;
66585;SDS011;53444;45.822;16.092;2023-07-29T01:30:04;4.78;;;2.28;;
66585;SDS011;53444;45.822;16.092;2023-07-29T01:32:37;5.78;;;2.80;;
66585;SDS011;53444;45.822;16.092;2023-07-29T01:35:10;4.10;;;2.35;;
66585;SDS011;53444;45.822;16.092;2023-07-29T01:37:42;4.27;;;2.37;;
66585;SDS011;53444;45.822;16.092;2023-07-29T01:40:15;4.20;;;2.60;;
66585;SDS011;53444;45.822;16.092;2023-07-29T01:42:43;7.88;;;2.97;;
66585;SDS011;53444;45.822;16.092;2023-07-29T01:45:10;4.93;;;2.80;;
66585;SDS011;53444;45.822;16.092;2023-07-29T01:47:37;5.03;;;2.50;;
66585;SDS011;53444;45.822;16.092;2023-07-29T01:50:06;4.87;;;2.37;;
66585;SDS011;53444;45.822;16.092;2023-07-29T01:52:33;5.53;;;2.33;;
66585;SDS011;53444;45.822;16.092;2023-07-29T01:55:00;4.80;;;2.30;;
66585;SDS011;53444;45.822;16.092;2023-07-29T01:57:28;7.32;;;2.60;;
66585;SDS011;53444;45.822;16.092;2023-07-29T01:59:55;5.35;;;2.53;;
66585;SDS011;53444;45.822;16.092;2023-07-29T02:02:21;4.30;;;2.67;;
66585;SDS011;53444;45.822;16.092;2023-07-29T02:04:48;6.20;;;2.50;;
66585;SDS011;53444;45.822;16.092;2023-07-29T02:07:16;4.40;;;2.40;;
66585;SDS011;53444;45.822;16.092;2023-07-29T02:09:43;6.00;;;2.55;;
66585;SDS011;53444;45.822;16.092;2023-07-29T02:12:09;6.25;;;2.63;;
66585;SDS011;53444;45.822;16.092;2023-07-29T02:14:37;7.57;;;2.87;;
66585;SDS011;53444;45.822;16.092;2023-07-29T02:17:04;6.95;;;2.63;;
66585;SDS011;53444;45.822;16.092;2023-07-29T02:19:31;3.70;;;2.67;;
66585;SDS011;53444;45.822;16.092;2023-07-29T02:21:57;5.22;;;2.90;;
66585;SDS011;53444;45.822;16.092;2023-07-29T02:24:24;5.22;;;3.03;;
66585;SDS011;53444;45.822;16.092;2023-07-29T02:26:50;5.57;;;2.77;;
66585;SDS011;53444;45.822;16.092;2023-07-29T02:29:17;4.78;;;2.85;;
66585;SDS011;53444;45.822;16.092;2023-07-29T02:31:45;6.43;;;3.33;;
66585;SDS011;53444;45.822;16.092;2023-07-29T02:34:12;5.15;;;2.97;;
66585;SDS011;53444;45.822;16.092;2023-07-29T02:36:39;4.60;;;3.00;;
66585;SDS011;53444;45.822;16.092;2023-07-29T02:39:05;4.37;;;2.97;;
66585;SDS011;53444;45.822;16.092;2023-07-29T02:41:32;4.82;;;2.75;;
66585;SDS011;53444;45.822;16.092;2023-07-29T02:43:59;5.20;;;3.17;;
66585;SDS011;53444;45.822;16.092;2023-07-29T02:46:25;7.43;;;3.28;;
66585;SDS011;53444;45.822;16.092;2023-07-29T02:48:53;6.30;;;3.10;;
66585;SDS011;53444;45.822;16.092;2023-07-29T02:51:20;7.63;;;3.30;;
66585;SDS011;53444;45.822;16.092;2023-07-29T02:53:46;6.63;;;3.30;;
66585;SDS011;53444;45.822;16.092;2023-07-29T02:56:13;5.60;;;3.42;;
66585;SDS011;53444;45.822;16.092;2023-07-29T02:58:40;4.72;;;3.33;;
66585;SDS011;53444;45.822;16.092;2023-07-29T03:01:06;7.05;;;3.25;;
66585;SDS011;53444;45.822;16.092;2023-07-29T03:03:33;6.70;;;3.37;;
66585;SDS011;53444;45.822;16.092;2023-07-29T03:06:04;5.65;;;3.22;;
66585;SDS011;53444;45.822;16.092;2023-07-29T03:08:32;5.65;;;3.10;;
66585;SDS011;53444;45.822;16.092;2023-07-29T03:11:04;6.63;;;3.70;;
66585;SDS011;53444;45.822;16.092;2023-07-29T03:13:31;6.28;;;3.72;;
66585;SDS011;53444;45.822;16.092;2023-07-29T03:16:04;8.20;;;4.30;;
66585;SDS011;53444;45.822;16.092;2023-07-29T03:18:31;5.70;;;4.00;;
66585;SDS011;53444;45.822;16.092;2023-07-29T03:20:57;10.88;;;4.72;;
66585;SDS011;53444;45.822;16.092;2023-07-29T03:23:25;7.85;;;4.25;;
66585;SDS011;53444;45.822;16.092;2023-07-29T03:25:52;7.85;;;4.28;;
66585;SDS011;53444;45.822;16.092;2023-07-29T03:28:21;7.00;;;4.40;;
66585;SDS011;53444;45.822;16.092;2023-07-29T03:30:48;9.40;;;4.40;;
66585;SDS011;53444;45.822;16.092;2023-07-29T03:33:15;6.80;;;4.38;;
66585;SDS011;53444;45.822;16.092;2023-07-29T03:35:41;5.85;;;3.92;;
66585;SDS011;53444;45.822;16.092;2023-07-29T03:38:09;6.03;;;3.83;;
66585;SDS011;53444;45.822;16.092;2023-07-29T03:40:37;6.13;;;3.80;;
66585;SDS011;53444;45.822;16.092;2023-07-29T03:43:04;6.65;;;3.65;;
66585;SDS011;53444;45.822;16.092;2023-07-29T03:45:31;5.50;;;3.83;;
66585;SDS011;53444;45.822;16.092;2023-07-29T03:47:58;5.55;;;3.60;;
66585;SDS011;53444;45.822;16.092;2023-07-29T03:50:24;7.38;;;3.47;;
66585;SDS011;53444;45.822;16.092;2023-07-29T03:52:52;4.93;;;2.97;;
66585;SDS011;53444;45.822;16.092;2023-07-29T03:55:19;6.75;;;3.25;;
66585;SDS011;53444;45.822;16.092;2023-07-29T03:57:47;5.65;;;3.40;;
66585;SDS011;53444;45.822;16.092;2023-07-29T04:00:14;5.65;;;3.28;;
66585;SDS011;53444;45.822;16.092;2023-07-29T04:02:41;5.68;;;3.08;;
66585;SDS011;53444;45.822;16.092;2023-07-29T04:05:07;7.67;;;3.40;;
66585;SDS011;53444;45.822;16.092;2023-07-29T04:07:34;5.07;;;2.90;;
66585;SDS011;53444;45.822;16.092;2023-07-29T04:10:01;5.28;;;2.90;;
66585;SDS011;53444;45.822;16.092;2023-07-29T04:12:30;5.65;;;3.05;;
66585;SDS011;53444;45.822;16.092;2023-07-29T04:14:58;6.65;;;2.95;;
66585;SDS011;53444;45.822;16.092;2023-07-29T04:17:25;5.10;;;2.70;;
66585;SDS011;53444;45.822;16.092;2023-07-29T04:19:51;4.93;;;2.83;;
66585;SDS011;53444;45.822;16.092;2023-07-29T04:22:18;4.00;;;2.58;;
66585;SDS011;53444;45.822;16.092;2023-07-29T04:24:44;5.97;;;2.67;;
66585;SDS011;53444;45.822;16.092;2023-07-29T04:27:11;4.97;;;3.00;;
66585;SDS011;53444;45.822;16.092;2023-07-29T04:29:38;4.93;;;2.70;;
66585;SDS011;53444;45.822;16.092;2023-07-29T04:32:06;7.55;;;3.03;;
66585;SDS011;53444;45.822;16.092;2023-07-29T04:34:33;4.00;;;2.65;;
66585;SDS011;53444;45.822;16.092;2023-07-29T04:36:59;3.88;;;2.90;;
66585;SDS011;53444;45.822;16.092;2023-07-29T04:39:26;5.82;;;2.78;;
66585;SDS011;53444;45.822;16.092;2023-07-29T04:41:53;6.53;;;3.00;;
66585;SDS011;53444;45.822;16.092;2023-07-29T04:44:19;5.28;;;3.30;;
66585;SDS011;53444;45.822;16.092;2023-07-29T04:46:46;5.57;;;2.90;;
66585;SDS011;53444;45.822;16.092;2023-07-29T04:49:14;6.43;;;3.13;;
66585;SDS011;53444;45.822;16.092;2023-07-29T04:51:40;4.53;;;3.03;;
66585;SDS011;53444;45.822;16.092;2023-07-29T04:54:07;4.43;;;2.97;;
66585;SDS011;53444;45.822;16.092;2023-07-29T04:56:33;5.88;;;2.90;;
66585;SDS011;53444;45.822;16.092;2023-07-29T04:59:00;6.35;;;3.30;;
66585;SDS011;53444;45.822;16.092;2023-07-29T05:01:27;3.90;;;3.00;;
66585;SDS011;53444;45.822;16.092;2023-07-29T05:03:53;4.63;;;2.88;;
66585;SDS011;53444;45.822;16.092;2023-07-29T05:06:21;5.27;;;2.97;;
66585;SDS011;53444;45.822;16.092;2023-07-29T05:08:48;7.60;;;3.40;;
66585;SDS011;53444;45.822;16.092;2023-07-29T05:11:14;5.20;;;2.88;;
66585;SDS011;53444;45.822;16.092;2023-07-29T05:13:41;4.38;;;3.15;;
66585;SDS011;53444;45.822;16.092;2023-07-29T05:16:09;5.03;;;2.80;;
66585;SDS011;53444;45.822;16.092;2023-07-29T05:18:35;3.17;;;2.57;;
66585;SDS011;53444;45.822;16.092;2023-07-29T05:21:02;4.72;;;3.10;;
66585;SDS011;53444;45.822;16.092;2023-07-29T05:23:30;5.40;;;3.10;;
66585;SDS011;53444;45.822;16.092;2023-07-29T05:25:56;4.63;;;2.90;;
66585;SDS011;53444;45.822;16.092;2023-07-29T05:28:23;5.88;;;3.00;;
66585;SDS011;53444;45.822;16.092;2023-07-29T05:30:49;4.07;;;3.00;;
66585;SDS011;53444;45.822;16.092;2023-07-29T05:33:16;4.15;;;2.90;;
66585;SDS011;53444;45.822;16.092;2023-07-29T05:35:43;4.88;;;3.22;;
66585;SDS011;53444;45.822;16.092;2023-07-29T05:38:12;6.97;;;3.30;;
66585;SDS011;53444;45.822;16.092;2023-07-29T05:40:39;4.05;;;2.92;;
66585;SDS011;53444;45.822;16.092;2023-07-29T05:43:06;5.73;;;3.27;;
66585;SDS011;53444;45.822;16.092;2023-07-29T05:45:33;5.32;;;2.97;;
66585;SDS011;53444;45.822;16.092;2023-07-29T05:47:59;5.05;;;3.28;;
66585;SDS011;53444;45.822;16.092;2023-07-29T05:50:26;4.72;;;3.58;;
66585;SDS011;53444;45.822;16.092;2023-07-29T05:52:53;5.82;;;3.50;;
66585;SDS011;53444;45.822;16.092;2023-07-29T05:55:19;5.87;;;3.47;;
66585;SDS011;53444;45.822;16.092;2023-07-29T05:57:47;8.90;;;3.60;;
66585;SDS011;53444;45.822;16.092;2023-07-29T06:00:14;7.15;;;3.80;;
66585;SDS011;53444;45.822;16.092;2023-07-29T06:02:41;8.15;;;3.92;;
66585;SDS011;53444;45.822;16.092;2023-07-29T06:05:07;7.45;;;3.75;;
66585;SDS011;53444;45.822;16.092;2023-07-29T06:07:34;5.80;;;3.63;;
66585;SDS011;53444;45.822;16.092;2023-07-29T06:10:01;5.90;;;3.83;;
66585;SDS011;53444;45.822;16.092;2023-07-29T06:12:27;5.43;;;3.97;;
66585;SDS011;53444;45.822;16.092;2023-07-29T06:14:55;8.00;;;4.20;;
66585;SDS011;53444;45.822;16.092;2023-07-29T06:17:22;6.13;;;4.43;;
66585;SDS011;53444;45.822;16.092;2023-07-29T06:19:48;13.60;;;4.83;;
66585;SDS011;53444;45.822;16.092;2023-07-29T06:22:15;8.85;;;4.57;;
66585;SDS011;53444;45.822;16.092;2023-07-29T06:24:42;8.18;;;4.55;;
66585;SDS011;53444;45.822;16.092;2023-07-29T06:27:10;9.32;;;5.65;;
66585;SDS011;53444;45.822;16.092;2023-07-29T06:29:36;9.57;;;4.93;;
66585;SDS011;53444;45.822;16.092;2023-07-29T06:32:05;8.37;;;5.33;;
66585;SDS011;53444;45.822;16.092;2023-07-29T06:34:32;6.22;;;5.18;;
66585;SDS011;53444;45.822;16.092;2023-07-29T06:36:58;7.07;;;5.20;;
66585;SDS011;53444;45.822;16.092;2023-07-29T06:39:25;7.68;;;4.90;;
66585;SDS011;53444;45.822;16.092;2023-07-29T06:41:52;8.25;;;5.05;;
66585;SDS011;53444;45.822;16.092;2023-07-29T06:44:18;8.60;;;4.10;;
66585;SDS011;53444;45.822;16.092;2023-07-29T06:46:45;7.70;;;3.60;;
66585;SDS011;53444;45.822;16.092;2023-07-29T06:49:13;5.07;;;4.10;;
66585;SDS011;53444;45.822;16.092;2023-07-29T06:51:40;7.65;;;4.18;;
66585;SDS011;53444;45.822;16.092;2023-07-29T06:54:06;7.18;;;3.83;;
66585;SDS011;53444;45.822;16.092;2023-07-29T06:56:33;6.60;;;3.80;;
66585;SDS011;53444;45.822;16.092;2023-07-29T06:59:00;8.75;;;3.80;;
66585;SDS011;53444;45.822;16.092;2023-07-29T07:01:26;8.30;;;4.43;;
66585;SDS011;53444;45.822;16.092;2023-07-29T07:03:53;6.28;;;3.60;;
66585;SDS011;53444;45.822;16.092;2023-07-29T07:06:21;8.57;;;4.15;;
66585;SDS011;53444;45.822;16.092;2023-07-29T07:08:49;8.00;;;3.47;;
66585;SDS011;53444;45.822;16.092;2023-07-29T07:11:16;5.97;;;3.53;;
66585;SDS011;53444;45.822;16.092;2023-07-29T07:13:44;6.32;;;3.95;;
66585;SDS011;53444;45.822;16.092;2023-07-29T07:16:10;7.47;;;3.67;;
66585;SDS011;53444;45.822;16.092;2023-07-29T07:18:37;7.10;;;4.10;;
66585;SDS011;53444;45.822;16.092;2023-07-29T07:21:03;5.30;;;3.43;;
66585;SDS011;53444;45.822;16.092;2023-07-29T07:23:31;6.90;;;3.72;;
66585;SDS011;53444;45.822;16.092;2023-07-29T07:25:58;7.57;;;4.13;;
66585;SDS011;53444;45.822;16.092;2023-07-29T07:28:25;10.30;;;3.67;;
66585;SDS011;53444;45.822;16.092;2023-07-29T07:30:51;6.88;;;4.03;;
66585;SDS011;53444;45.822;16.092;2023-07-29T07:33:20;8.23;;;4.07;;
66585;SDS011;53444;45.822;16.092;2023-07-29T07:35:47;4.75;;;3.67;;
66585;SDS011;53444;45.822;16.092;2023-07-29T07:38:14;5.57;;;3.83;;
66585;SDS011;53444;45.822;16.092;2023-07-29T07:40:42;4.65;;;3.63;;
66585;SDS011;53444;45.822;16.092;2023-07-29T07:43:18;6.25;;;3.30;;
66585;SDS011;53444;45.822;16.092;2023-07-29T07:45:44;5.23;;;3.50;;
66585;SDS011;53444;45.822;16.092;2023-07-29T07:48:11;5.47;;;3.22;;
66585;SDS011;53444;45.822;16.092;2023-07-29T07:50:38;7.07;;;3.45;;
66585;SDS011;53444;45.822;16.092;2023-07-29T07:53:04;5.05;;;3.58;;
66585;SDS011;53444;45.822;16.092;2023-07-29T07:55:31;5.05;;;3.50;;
66585;SDS011;53444;45.822;16.092;2023-07-29T07:57:59;4.40;;;3.33;;
66585;SDS011;53444;45.822;16.092;2023-07-29T08:00:26;4.50;;;3.40;;
66585;SDS011;53444;45.822;16.092;2023-07-29T08:02:53;7.30;;;3.85;;
66585;SDS011;53444;45.822;16.092;2023-07-29T08:05:19;4.78;;;3.17;;
66585;SDS011;53444;45.822;16.092;2023-07-29T08:07:46;5.47;;;3.28;;
66585;SDS011;53444;45.822;16.092;2023-07-29T08:10:12;5.80;;;3.00;;
66585;SDS011;53444;45.822;16.092;2023-07-29T08:12:39;3.80;;;2.63;;
66585;SDS011;53444;45.822;16.092;2023-07-29T08:15:07;3.55;;;2.65;;
66585;SDS011;53444;45.822;16.092;2023-07-29T08:17:34;4.10;;;3.03;;
66585;SDS011;53444;45.822;16.092;2023-07-29T08:20:01;3.55;;;2.65;;
66585;SDS011;53444;45.822;16.092;2023-07-29T08:22:28;3.87;;;2.90;;
66585;SDS011;53444;45.822;16.092;2023-07-29T08:24:54;3.28;;;2.95;;
66585;SDS011;53444;45.822;16.092;2023-07-29T08:27:21;4.35;;;3.13;;
66585;SDS011;53444;45.822;16.092;2023-07-29T08:29:48;4.35;;;3.08;;
66585;SDS011;53444;45.822;16.092;2023-07-29T08:32:15;6.00;;;3.50;;
66585;SDS011;53444;45.822;16.092;2023-07-29T08:34:42;5.43;;;3.37;;
66585;SDS011;53444;45.822;16.092;2023-07-29T08:37:09;4.85;;;2.90;;
66585;SDS011;53444;45.822;16.092;2023-07-29T08:39:36;3.53;;;3.03;;
66585;SDS011;53444;45.822;16.092;2023-07-29T08:42:03;5.95;;;3.17;;
66585;SDS011;53444;45.822;16.092;2023-07-29T08:44:35;4.40;;;2.80;;
66585;SDS011;53444;45.822;16.092;2023-07-29T08:47:05;3.40;;;2.70;;
66585;SDS011;53444;45.822;16.092;2023-07-29T08:49:34;3.45;;;2.80;;
66585;SDS011;53444;45.822;16.092;2023-07-29T08:52:02;2.97;;;2.67;;
66585;SDS011;53444;45.822;16.092;2023-07-29T08:54:31;3.47;;;2.58;;
66585;SDS011;53444;45.822;16.092;2023-07-29T08:56:57;4.35;;;2.90;;
66585;SDS011;53444;45.822;16.092;2023-07-29T08:59:24;3.90;;;3.13;;
66585;SDS011;53444;45.822;16.092;2023-07-29T09:01:52;5.25;;;3.30;;
66585;SDS011;53444;45.822;16.092;2023-07-29T09:04:22;4.40;;;3.42;;
66585;SDS011;53444;45.822;16.092;2023-07-29T09:06:51;3.80;;;3.30;;
66585;SDS011;53444;45.822;16.092;2023-07-29T09:09:20;4.35;;;3.33;;
66585;SDS011;53444;45.822;16.092;2023-07-29T09:11:47;3.80;;;3.10;;
66585;SDS011;53444;45.822;16.092;2023-07-29T09:14:14;4.30;;;3.17;;
66585;SDS011;53444;45.822;16.092;2023-07-29T09:16:41;3.70;;;2.80;;
66585;SDS011;53444;45.822;16.092;2023-07-29T09:19:07;3.50;;;3.17;;
66585;SDS011;53444;45.822;16.092;2023-07-29T09:21:34;3.55;;;3.10;;
66585;SDS011;53444;45.822;16.092;2023-07-29T09:24:06;3.70;;;2.93;;
66585;SDS011;53444;45.822;16.092;2023-07-29T09:26:34;5.40;;;3.45;;
66585;SDS011;53444;45.822;16.092;2023-07-29T09:29:01;3.80;;;3.38;;
66585;SDS011;53444;45.822;16.092;2023-07-29T09:31:28;4.32;;;3.38;;
66585;SDS011;53444;45.822;16.092;2023-07-29T09:33:56;6.40;;;3.30;;
66585;SDS011;53444;45.822;16.092;2023-07-29T09:36:24;4.87;;;3.50;;
66585;SDS011;53444;45.822;16.092;2023-07-29T09:38:54;4.10;;;3.20;;
66585;SDS011;53444;45.822;16.092;2023-07-29T09:41:26;3.30;;;3.00;;
66585;SDS011;53444;45.822;16.092;2023-07-29T09:43:57;4.00;;;3.17;;
66585;SDS011;53444;45.822;16.092;2023-07-29T09:46:24;5.40;;;3.20;;
66585;SDS011;53444;45.822;16.092;2023-07-29T09:48:57;4.13;;;3.23;;
66585;SDS011;53444;45.822;16.092;2023-07-29T09:51:24;4.80;;;3.22;;
66585;SDS011;53444;45.822;16.092;2023-07-29T09:53:50;3.88;;;3.28;;
66585;SDS011;53444;45.822;16.092;2023-07-29T09:56:17;4.78;;;3.47;;
66585;SDS011;53444;45.822;16.092;2023-07-29T09:58:46;4.63;;;3.38;;
66585;SDS011;53444;45.822;16.092;2023-07-29T10:01:14;6.13;;;3.20;;
66585;SDS011;53444;45.822;16.092;2023-07-29T10:03:41;3.90;;;3.50;;
66585;SDS011;53444;45.822;16.092;2023-07-29T10:06:08;5.00;;;3.38;;
66585;SDS011;53444;45.822;16.092;2023-07-29T10:08:35;4.40;;;3.22;;
66585;SDS011;53444;45.822;16.092;2023-07-29T10:11:03;4.15;;;3.60;;
66585;SDS011;53444;45.822;16.092;2023-07-29T10:13:31;4.73;;;3.53;;
66585;SDS011;53444;45.822;16.092;2023-07-29T10:15:59;4.50;;;3.50;;
66585;SDS011;53444;45.822;16.092;2023-07-29T10:18:28;6.05;;;3.50;;
66585;SDS011;53444;45.822;16.092;2023-07-29T10:20:56;5.20;;;3.42;;
66585;SDS011;53444;45.822;16.092;2023-07-29T10:23:24;5.90;;;3.40;;
66585;SDS011;53444;45.822;16.092;2023-07-29T10:25:54;4.10;;;3.50;;
66585;SDS011;53444;45.822;16.092;2023-07-29T10:28:24;5.22;;;3.20;;
66585;SDS011;53444;45.822;16.092;2023-07-29T10:30:52;4.22;;;3.80;;
66585;SDS011;53444;45.822;16.092;2023-07-29T10:33:21;4.22;;;3.30;;
66585;SDS011;53444;45.822;16.092;2023-07-29T10:35:47;5.53;;;3.50;;
66585;SDS011;53444;45.822;16.092;2023-07-29T10:38:14;3.40;;;3.10;;
66585;SDS011;53444;45.822;16.092;2023-07-29T10:40:46;3.63;;;3.17;;
66585;SDS011;53444;45.822;16.092;2023-07-29T10:43:18;4.88;;;3.45;;
66585;SDS011;53444;45.822;16.092;2023-07-29T10:45:46;3.72;;;3.22;;
66585;SDS011;53444;45.822;16.092;2023-07-29T10:51:23;3.83;;;3.20;;
66585;SDS011;53444;45.822;16.092;2023-07-29T10:53:52;3.78;;;3.30;;
66585;SDS011;53444;45.822;16.092;2023-07-29T10:56:24;4.38;;;3.20;;
66585;SDS011;53444;45.822;16.092;2023-07-29T10:58:54;3.30;;;3.00;;
66585;SDS011;53444;45.822;16.092;2023-07-29T11:01:26;5.03;;;3.20;;
66585;SDS011;53444;45.822;16.092;2023-07-29T11:04:02;4.63;;;3.40;;
66585;SDS011;53444;45.822;16.092;2023-07-29T11:09:55;3.60;;;3.30;;
66585;SDS011;53444;45.822;16.092;2023-07-29T11:15:17;3.13;;;2.83;;
66585;SDS011;53444;45.822;16.092;2023-07-29T11:17:45;3.93;;;3.07;;
66585;SDS011;53444;45.822;16.092;2023-07-29T11:20:15;3.80;;;3.10;;
66585;SDS011;53444;45.822;16.092;2023-07-29T11:22:42;3.80;;;3.22;;
66585;SDS011;53444;45.822;16.092;2023-07-29T11:25:10;6.00;;;3.22;;
66585;SDS011;53444;45.822;16.092;2023-07-29T11:27:38;4.13;;;3.08;;
66585;SDS011;53444;45.822;16.092;2023-07-29T11:30:05;6.97;;;3.37;;
66585;SDS011;53444;45.822;16.092;2023-07-29T11:32:33;3.38;;;3.08;;
66585;SDS011;53444;45.822;16.092;2023-07-29T11:35:01;5.38;;;3.25;;
66585;SDS011;53444;45.822;16.092;2023-07-29T11:37:30;3.60;;;3.00;;
66585;SDS011;53444;45.822;16.092;2023-07-29T11:39:58;3.75;;;3.03;;
66585;SDS011;53444;45.822;16.092;2023-07-29T11:42:25;4.00;;;3.10;;
66585;SDS011;53444;45.822;16.092;2023-07-29T11:44:53;4.57;;;3.42;;
66585;SDS011;53444;45.822;16.092;2023-07-29T11:47:19;3.70;;;3.30;;
66585;SDS011;53444;45.822;16.092;2023-07-29T11:49:46;4.50;;;3.63;;
66585;SDS011;53444;45.822;16.092;2023-07-29T11:52:12;3.83;;;3.13;;
66585;SDS011;53444;45.822;16.092;2023-07-29T11:54:40;4.20;;;3.10;;
66585;SDS011;53444;45.822;16.092;2023-07-29T11:57:07;4.13;;;3.42;;
66585;SDS011;53444;45.822;16.092;2023-07-29T11:59:34;6.57;;;3.65;;
66585;SDS011;53444;45.822;16.092;2023-07-29T12:02:05;8.48;;;4.38;;
66585;SDS011;53444;45.822;16.092;2023-07-29T12:04:34;13.43;;;4.70;;
66585;SDS011;53444;45.822;16.092;2023-07-29T12:07:01;3.90;;;3.40;;
66585;SDS011;53444;45.822;16.092;2023-07-29T12:09:28;6.30;;;3.50;;
66585;SDS011;53444;45.822;16.092;2023-07-29T12:11:57;21.63;;;6.57;;
66585;SDS011;53444;45.822;16.092;2023-07-29T12:14:25;16.67;;;5.38;;
66585;SDS011;53444;45.822;16.092;2023-07-29T12:16:52;5.63;;;2.97;;
66585;SDS011;53444;45.822;16.092;2023-07-29T12:19:18;8.23;;;3.20;;
66585;SDS011;53444;45.822;16.092;2023-07-29T12:21:47;3.55;;;2.70;;
66585;SDS011;53444;45.822;16.092;2023-07-29T12:24:14;4.25;;;3.15;;
66585;SDS011;53444;45.822;16.092;2023-07-29T12:26:41;3.47;;;3.08;;
66585;SDS011;53444;45.822;16.092;2023-07-29T12:29:12;3.55;;;3.25;;
66585;SDS011;53444;45.822;16.092;2023-07-29T12:31:40;4.20;;;2.87;;
66585;SDS011;53444;45.822;16.092;2023-07-29T12:34:06;4.13;;;3.67;;
66585;SDS011;53444;45.822;16.092;2023-07-29T12:36:42;4.65;;;3.22;;
66585;SDS011;53444;45.822;16.092;2023-07-29T12:39:17;3.35;;;3.05;;
66585;SDS011;53444;45.822;16.092;2023-07-29T12:41:44;3.90;;;3.47;;
66585;SDS011;53444;45.822;16.092;2023-07-29T12:44:12;4.63;;;2.80;;
66585;SDS011;53444;45.822;16.092;2023-07-29T12:46:39;4.07;;;3.63;;
66585;SDS011;53444;45.822;16.092;2023-07-29T12:49:05;4.10;;;3.20;;
66585;SDS011;53444;45.822;16.092;2023-07-29T12:51:32;3.42;;;3.10;;
66585;SDS011;53444;45.822;16.092;2023-07-29T12:53:59;4.05;;;3.10;;
66585;SDS011;53444;45.822;16.092;2023-07-29T12:56:26;4.30;;;3.20;;
66585;SDS011;53444;45.822;16.092;2023-07-29T12:58:53;4.95;;;3.45;;
66585;SDS011;53444;45.822;16.092;2023-07-29T13:01:21;3.83;;;3.42;;
66585;SDS011;53444;45.822;16.092;2023-07-29T13:03:48;3.63;;;3.20;;
66585;SDS011;53444;45.822;16.092;2023-07-29T13:06:14;4.10;;;3.70;;
66585;SDS011;53444;45.822;16.092;2023-07-29T13:08:41;4.07;;;3.27;;
66585;SDS011;53444;45.822;16.092;2023-07-29T13:11:08;4.00;;;3.40;;
66585;SDS011;53444;45.822;16.092;2023-07-29T13:13:35;4.88;;;3.45;;
66585;SDS011;53444;45.822;16.092;2023-07-29T13:16:02;4.03;;;3.28;;
66585;SDS011;53444;45.822;16.092;2023-07-29T13:18:30;4.05;;;3.33;;
66585;SDS011;53444;45.822;16.092;2023-07-29T13:20:56;4.33;;;3.10;;
66585;SDS011;53444;45.822;16.092;2023-07-29T13:23:23;3.20;;;2.90;;
66585;SDS011;53444;45.822;16.092;2023-07-29T13:25:50;3.60;;;3.30;;
66585;SDS011;53444;45.822;16.092;2023-07-29T13:28:17;3.50;;;2.80;;
66585;SDS011;53444;45.822;16.092;2023-07-29T13:30:44;3.58;;;3.28;;
66585;SDS011;53444;45.822;16.092;2023-07-29T13:33:10;3.50;;;2.90;;
66585;SDS011;53444;45.822;16.092;2023-07-29T13:35:38;3.60;;;2.97;;
66585;SDS011;53444;45.822;16.092;2023-07-29T13:38:05;3.35;;;3.05;;
66585;SDS011;53444;45.822;16.092;2023-07-29T13:40:32;3.13;;;2.83;;
66585;SDS011;53444;45.822;16.092;2023-07-29T13:42:58;5.15;;;4.15;;
66585;SDS011;53444;45.822;16.092;2023-07-29T13:45:25;4.17;;;3.10;;
66585;SDS011;53444;45.822;16.092;2023-07-29T13:47:52;3.55;;;3.08;;
66585;SDS011;53444;45.822;16.092;2023-07-29T13:50:18;3.55;;;3.17;;
66585;SDS011;53444;45.822;16.092;2023-07-29T13:52:46;4.38;;;3.25;;
66585;SDS011;53444;45.822;16.092;2023-07-29T13:55:13;3.72;;;3.20;;
66585;SDS011;53444;45.822;16.092;2023-07-29T13:57:39;4.57;;;3.20;;
66585;SDS011;53444;45.822;16.092;2023-07-29T14:00:06;3.60;;;3.30;;
66585;SDS011;53444;45.822;16.092;2023-07-29T14:02:34;4.30;;;3.78;;
66585;SDS011;53444;45.822;16.092;2023-07-29T14:05:00;3.78;;;3.28;;
66585;SDS011;53444;45.822;16.092;2023-07-29T14:07:28;3.65;;;2.97;;
66585;SDS011;53444;45.822;16.092;2023-07-29T14:09:55;3.57;;;3.03;;
66585;SDS011;53444;45.822;16.092;2023-07-29T14:12:22;5.32;;;3.33;;
66585;SDS011;53444;45.822;16.092;2023-07-29T14:14:49;3.80;;;3.50;;
66585;SDS011;53444;45.822;16.092;2023-07-29T14:17:15;3.75;;;3.17;;
66585;SDS011;53444;45.822;16.092;2023-07-29T14:19:42;3.90;;;3.40;;
66585;SDS011;53444;45.822;16.092;2023-07-29T14:22:08;3.40;;;2.97;;
66585;SDS011;53444;45.822;16.092;2023-07-29T14:24:35;3.83;;;3.40;;
66585;SDS011;53444;45.822;16.092;2023-07-29T14:27:03;3.63;;;3.33;;
66585;SDS011;53444;45.822;16.092;2023-07-29T14:29:30;4.03;;;3.63;;
66585;SDS011;53444;45.822;16.092;2023-07-29T14:31:57;3.75;;;3.30;;
66585;SDS011;53444;45.822;16.092;2023-07-29T14:34:24;3.77;;;3.20;;
66585;SDS011;53444;45.822;16.092;2023-07-29T14:36:50;3.40;;;3.10;;
66585;SDS011;53444;45.822;16.092;2023-07-29T14:39:17;4.05;;;3.08;;
66585;SDS011;53444;45.822;16.092;2023-07-29T14:41:43;5.00;;;3.75;;
66585;SDS011;53444;45.822;16.092;2023-07-29T14:44:11;4.30;;;3.50;;